createdAt,value
2022-09-14T00:03:11.147Z,25.10
2022-09-14T00:08:14.742Z,25.10
2022-09-14T00:13:17.553Z,25.10
2022-09-14T00:18:21.691Z,25.10
2022-09-14T00:23:24.452Z,25.10
2022-09-14T00:28:27.209Z,25.10
2022-09-14T00:33:31.400Z,25.10
2022-09-14T00:38:34.202Z,25.10
2022-09-14T00:43:52.356Z,25.10
2022-09-14T00:48:57.529Z,25.10
2022-09-14T00:54:01.941Z,25.10
2022-09-14T00:59:07.726Z,25.10
2022-09-14T01:04:11.853Z,25.10
2022-09-14T01:09:19.997Z,25.10
2022-09-14T01:14:26.012Z,25.10
2022-09-14T01:19:34.744Z,25.10
2022-09-14T01:24:41.716Z,25.10
2022-09-14T01:29:48.725Z,25.10
2022-09-14T01:34:53.359Z,25.10
2022-09-14T01:39:59.216Z,25.10
2022-09-14T01:45:08.538Z,25.10
2022-09-14T01:50:12.369Z,25.10
2022-09-14T01:55:18.614Z,25.10
2022-09-14T02:00:23.408Z,25.10
2022-09-14T02:05:29.660Z,25.10
2022-09-14T02:10:32.740Z,25.10
2022-09-14T02:15:37.661Z,25.10
2022-09-14T02:20:43.976Z,25.10
2022-09-14T02:25:47.145Z,25.10
2022-09-14T02:30:56.271Z,25.10
2022-09-14T02:36:02.450Z,25.10
2022-09-14T02:41:08.476Z,25.10
2022-09-14T02:46:17.574Z,25.10
2022-09-14T02:51:26.079Z,25.10
2022-09-14T02:56:29.520Z,25.10
2022-09-14T03:01:33.831Z,25.10
2022-09-14T03:06:37.098Z,25.10
2022-09-14T03:11:39.873Z,25.10
2022-09-14T03:16:44.021Z,25.10
2022-09-14T03:21:46.851Z,25.10
2022-09-14T03:26:52.138Z,25.10
2022-09-14T03:31:56.347Z,25.10
2022-09-14T03:36:59.100Z,25.10
2022-09-14T03:42:01.889Z,25.10
2022-09-14T03:47:06.117Z,25.10
2022-09-14T03:52:08.960Z,25.10
2022-09-14T03:57:11.729Z,25.10
2022-09-14T04:02:16.005Z,25.10
2022-09-14T04:07:18.929Z,25.10
2022-09-14T04:12:21.700Z,25.10
2022-09-14T04:17:26.004Z,25.10
2022-09-14T04:22:28.787Z,25.10
2022-09-14T04:27:31.762Z,25.10
2022-09-14T04:32:35.938Z,25.10
2022-09-14T04:37:38.706Z,25.10
2022-09-14T04:42:41.465Z,25.10
2022-09-14T04:47:45.601Z,25.10
2022-09-14T04:52:48.392Z,25.10
2022-09-14T04:57:51.236Z,25.10
2022-09-14T05:02:55.386Z,25.10
2022-09-14T05:07:58.217Z,25.10
2022-09-14T05:13:00.986Z,25.10
2022-09-14T05:18:05.305Z,25.10
2022-09-14T05:23:08.075Z,25.10
2022-09-14T05:28:10.841Z,25.10
2022-09-14T05:33:14.974Z,25.10
2022-09-14T05:38:17.729Z,25.00
2022-09-14T05:43:22.568Z,25.10
2022-09-14T05:48:26.701Z,25.10
2022-09-14T05:53:29.465Z,25.10
2022-09-14T05:58:32.921Z,25.00
2022-09-14T06:03:37.397Z,25.00
2022-09-14T06:08:40.857Z,25.00
2022-09-14T06:13:44.031Z,25.10
2022-09-14T06:18:49.209Z,25.10
2022-09-14T06:23:52.013Z,25.10
2022-09-14T06:28:54.812Z,25.10
2022-09-14T06:33:58.950Z,25.10
2022-09-14T06:39:01.754Z,25.10
2022-09-14T06:44:04.596Z,25.10
2022-09-14T06:49:09.615Z,25.00
2022-09-14T06:54:13.295Z,25.00
2022-09-14T06:59:16.880Z,25.00
2022-09-14T07:04:21.545Z,25.10
2022-09-14T07:09:25.055Z,25.10
2022-09-14T07:14:32.042Z,25.00
2022-09-14T07:19:36.554Z,25.00
2022-09-14T07:24:39.306Z,25.10
2022-09-14T07:29:42.061Z,25.00
2022-09-14T07:34:46.192Z,25.00
2022-09-14T07:39:49.385Z,25.00
2022-09-14T07:44:52.220Z,25.00
2022-09-14T07:49:56.382Z,25.00
2022-09-14T07:54:59.420Z,25.00
2022-09-14T08:00:03.437Z,25.00
2022-09-14T08:05:08.112Z,25.00
2022-09-14T08:10:10.920Z,25.00
2022-09-14T08:15:13.698Z,25.00
2022-09-14T08:20:17.986Z,25.00
2022-09-14T08:25:20.781Z,25.00
2022-09-14T08:30:23.547Z,25.00
2022-09-14T08:35:53.892Z,25.00
2022-09-14T08:40:51.469Z,25.00
2022-09-14T08:45:57.607Z,25.00
2022-09-14T08:51:02.070Z,25.00
2022-09-14T08:56:08.502Z,25.00
2022-09-14T09:01:16.248Z,25.00
2022-09-14T09:06:24.637Z,25.00
2022-09-14T09:11:28.890Z,25.00
2022-09-14T09:16:32.121Z,25.00
2022-09-14T09:21:39.595Z,25.10
2022-09-14T09:26:42.515Z,25.00
2022-09-14T09:31:47.541Z,25.00
2022-09-14T09:36:51.776Z,25.00
2022-09-14T09:41:57.688Z,25.00
2022-09-14T09:47:01.792Z,25.10
2022-09-14T09:52:10.153Z,25.00
2022-09-14T09:57:22.096Z,25.10
2022-09-14T10:02:28.040Z,25.00
2022-09-14T10:07:33.351Z,25.00
2022-09-14T10:12:37.223Z,25.10
2022-09-14T10:17:40.026Z,25.10
2022-09-14T10:22:44.270Z,25.10
2022-09-14T10:27:49.495Z,25.10
2022-09-14T10:32:56.068Z,25.10
2022-09-14T10:38:06.476Z,25.10
2022-09-14T10:43:14.314Z,25.10
2022-09-14T10:48:24.718Z,25.10
2022-09-14T10:53:37.894Z,25.10
2022-09-14T10:58:46.188Z,25.10
2022-09-14T11:03:54.782Z,25.10
2022-09-14T11:09:01.687Z,25.10
2022-09-14T11:14:10.722Z,25.10
2022-09-14T11:19:18.284Z,25.10
2022-09-14T11:24:25.217Z,25.10
2022-09-14T11:29:30.429Z,25.20
2022-09-14T11:34:35.436Z,25.20
2022-09-14T11:39:42.912Z,25.20
2022-09-14T11:44:47.062Z,25.20
2022-09-14T11:49:55.244Z,25.20
2022-09-14T11:55:00.535Z,25.20
2022-09-14T12:00:07.420Z,25.20
2022-09-14T12:05:29.807Z,25.20
2022-09-14T12:10:54.024Z,25.30
2022-09-14T12:16:02.692Z,25.30
2022-09-14T12:21:08.035Z,25.30
2022-09-14T12:26:25.620Z,25.30
2022-09-14T12:31:33.395Z,25.30
2022-09-14T12:36:57.613Z,25.30
2022-09-14T12:42:06.403Z,25.40
2022-09-14T12:47:28.527Z,25.30
2022-09-14T12:52:36.288Z,25.30
2022-09-14T12:57:45.438Z,25.30
2022-09-14T13:03:15.021Z,25.30
2022-09-14T13:08:21.693Z,25.40
2022-09-14T13:13:27.989Z,25.30
2022-09-14T13:18:34.566Z,25.30
2022-09-14T13:23:38.497Z,25.30
2022-09-14T13:28:43.995Z,25.40
2022-09-14T13:33:48.165Z,25.40
2022-09-14T13:38:51.184Z,25.40
2022-09-14T13:43:56.586Z,25.40
2022-09-14T13:48:59.912Z,25.40
2022-09-14T13:54:17.520Z,25.40
2022-09-14T13:59:22.633Z,25.40
2022-09-14T14:04:30.433Z,25.40
2022-09-14T14:09:43.813Z,25.50
2022-09-14T14:14:53.331Z,25.50
2022-09-14T14:19:57.231Z,25.50
2022-09-14T14:25:15.762Z,25.50
2022-09-14T14:30:21.208Z,25.60
2022-09-14T14:35:25.307Z,25.60
2022-09-14T14:40:28.612Z,25.60
2022-09-14T14:45:36.388Z,25.60
2022-09-14T14:50:39.428Z,25.60
2022-09-14T14:55:42.549Z,25.60
2022-09-14T15:00:47.181Z,25.60
2022-09-14T15:05:50.041Z,25.60
2022-09-14T15:10:56.408Z,25.60
2022-09-14T15:16:00.569Z,25.60
2022-09-14T15:21:03.383Z,25.60
2022-09-14T15:26:06.152Z,25.60
2022-09-14T15:31:10.279Z,25.60
2022-09-14T15:36:13.080Z,25.60
2022-09-14T15:41:15.829Z,25.60
2022-09-14T15:46:19.965Z,25.60
2022-09-14T15:51:22.720Z,25.60
2022-09-14T15:56:25.487Z,25.60
2022-09-14T16:01:30.275Z,25.60
2022-09-14T16:06:33.309Z,25.60
2022-09-14T16:11:36.683Z,25.60
2022-09-14T16:16:41.578Z,25.60
2022-09-14T16:21:44.489Z,25.50
2022-09-14T16:26:47.760Z,25.50
2022-09-14T16:31:52.424Z,25.50
2022-09-14T16:36:55.506Z,25.50
2022-09-14T16:42:00.233Z,25.50
2022-09-14T16:47:04.620Z,25.50
2022-09-14T16:52:07.574Z,25.50
2022-09-14T16:57:10.701Z,25.50
2022-09-14T17:02:14.909Z,25.50
2022-09-14T17:07:17.738Z,25.50
2022-09-14T17:12:20.514Z,25.50
2022-09-14T17:17:24.641Z,25.40
2022-09-14T17:22:27.411Z,25.50
2022-09-14T17:27:30.171Z,25.40
2022-09-14T17:32:34.317Z,25.40
2022-09-14T17:37:37.088Z,25.40
2022-09-14T17:42:40.001Z,25.40
2022-09-14T17:47:44.192Z,25.40
2022-09-14T17:52:46.956Z,25.40
2022-09-14T17:57:49.823Z,25.40
2022-09-14T18:02:53.997Z,25.40
2022-09-14T18:07:56.748Z,25.40
2022-09-14T18:12:59.560Z,25.40
2022-09-14T18:18:03.743Z,25.40
2022-09-14T18:23:07.244Z,25.40
2022-09-14T18:28:10.445Z,25.30
2022-09-14T18:33:16.971Z,25.30
2022-09-14T18:38:19.716Z,25.30
2022-09-14T18:43:22.629Z,25.30
2022-09-14T18:48:27.129Z,25.30
2022-09-14T18:53:30.245Z,25.30
2022-09-14T18:58:33.732Z,25.30
2022-09-14T19:03:38.677Z,25.30
2022-09-14T19:08:41.835Z,25.20
2022-09-14T19:13:44.900Z,25.30
2022-09-14T19:18:49.697Z,25.30
2022-09-14T19:23:57.480Z,25.20
2022-09-14T19:29:00.721Z,25.20
2022-09-14T19:34:05.128Z,25.20
2022-09-14T19:39:07.950Z,25.20
2022-09-14T19:44:11.925Z,25.20
2022-09-14T19:49:17.068Z,25.20
2022-09-14T19:54:20.021Z,25.20
2022-09-14T19:59:22.820Z,25.20
2022-09-14T20:04:26.972Z,25.20
2022-09-14T20:09:29.742Z,25.20
2022-09-14T20:14:32.528Z,25.20
2022-09-14T20:19:39.136Z,25.10
2022-09-14T20:24:41.997Z,25.10
2022-09-14T20:29:44.765Z,25.20
2022-09-14T20:34:49.285Z,25.10
2022-09-14T20:39:52.091Z,25.10
2022-09-14T20:44:54.868Z,25.10
2022-09-14T20:49:59.017Z,25.10
2022-09-14T20:55:02.325Z,25.10
2022-09-14T21:00:05.410Z,25.10
2022-09-14T21:05:10.582Z,25.10
2022-09-14T21:10:13.397Z,25.10
2022-09-14T21:15:16.245Z,25.10
2022-09-14T21:20:20.439Z,25.10
2022-09-14T21:25:23.205Z,25.10
2022-09-14T21:30:25.997Z,25.10
2022-09-14T21:35:33.562Z,25.10
2022-09-14T21:40:37.112Z,25.10
2022-09-14T21:45:44.925Z,25.10
2022-09-14T21:50:49.066Z,25.00
2022-09-14T21:55:51.825Z,25.00
2022-09-14T22:00:58.191Z,25.00
2022-09-14T22:06:03.644Z,25.00
2022-09-14T22:11:06.900Z,24.90
2022-09-14T22:16:10.002Z,24.90
2022-09-14T22:21:14.266Z,24.90
2022-09-14T22:26:17.906Z,25.00
2022-09-14T22:31:21.640Z,24.90
2022-09-14T22:36:26.729Z,24.90
2022-09-14T22:41:29.872Z,24.90
2022-09-14T22:46:32.786Z,24.90
2022-09-14T22:51:37.017Z,24.90
2022-09-14T22:56:40.128Z,24.90
2022-09-14T23:01:43.321Z,24.90
2022-09-14T23:06:48.301Z,24.90
2022-09-14T23:11:51.108Z,24.80
2022-09-14T23:16:53.915Z,24.80
2022-09-14T23:21:58.096Z,24.80
2022-09-14T23:27:00.882Z,24.80
2022-09-14T23:32:04.009Z,24.80
2022-09-14T23:37:08.229Z,24.80
2022-09-14T23:42:11.042Z,24.80
2022-09-14T23:47:13.821Z,24.80
2022-09-14T23:52:17.993Z,24.80
2022-09-14T23:57:20.778Z,24.80
